sensor_id;sensor_type;location;lat;lon;timestamp;pressure;altitude;pressure_sealevel;temperature;humidity
62164;BME280;48149;51.132;7.178;2023-09-18T00:01:18;97876.81;;;40.44;33.62
62164;BME280;48149;51.132;7.178;2023-09-18T00:03:44;97869.16;;;39.67;34.88
62164;BME280;48149;51.132;7.178;2023-09-18T00:06:10;97870.06;;;39.61;34.74
62164;BME280;48149;51.132;7.178;2023-09-18T00:08:36;97873.16;;;38.80;35.58
62164;BME280;48149;51.132;7.178;2023-09-18T00:11:03;97867.63;;;40.50;32.73
62164;BME280;48149;51.132;7.178;2023-09-18T00:13:28;97867.56;;;40.38;33.57
62164;BME280;48149;51.132;7.178;2023-09-18T00:15:57;97862.78;;;41.19;32.32
62164;BME280;48149;51.132;7.178;2023-09-18T00:18:24;97851.69;;;40.78;32.56
62164;BME280;48149;51.132;7.178;2023-09-18T00:20:49;97847.97;;;40.04;33.55
62164;BME280;48149;51.132;7.178;2023-09-18T00:23:17;97844.97;;;40.95;32.45
62164;BME280;48149;51.132;7.178;2023-09-18T00:25:42;97844.25;;;40.46;33.04
62164;BME280;48149;51.132;7.178;2023-09-18T00:28:07;97836.31;;;40.96;31.88
62164;BME280;48149;51.132;7.178;2023-09-18T00:30:33;97827.88;;;40.26;33.56
62164;BME280;48149;51.132;7.178;2023-09-18T00:32:58;97825.22;;;40.55;32.61
62164;BME280;48149;51.132;7.178;2023-09-18T00:35:23;97820.44;;;40.11;34.19
62164;BME280;48149;51.132;7.178;2023-09-18T00:37:49;97817.91;;;39.84;33.98
62164;BME280;48149;51.132;7.178;2023-09-18T00:40:14;97815.38;;;41.03;32.17
62164;BME280;48149;51.132;7.178;2023-09-18T00:42:40;97810.03;;;39.86;33.62
62164;BME280;48149;51.132;7.178;2023-09-18T00:45:05;97807.91;;;40.42;32.90
62164;BME280;48149;51.132;7.178;2023-09-18T00:47:31;97817.31;;;41.31;31.69
62164;BME280;48149;51.132;7.178;2023-09-18T00:49:56;97802.66;;;41.21;32.00
62164;BME280;48149;51.132;7.178;2023-09-18T00:52:21;97807.47;;;39.95;34.05
62164;BME280;48149;51.132;7.178;2023-09-18T00:54:47;97797.81;;;40.55;32.52
62164;BME280;48149;51.132;7.178;2023-09-18T00:57:13;97792.06;;;41.36;31.11
62164;BME280;48149;51.132;7.178;2023-09-18T00:59:38;97793.53;;;41.12;31.92
62164;BME280;48149;51.132;7.178;2023-09-18T01:02:03;97786.72;;;39.22;34.60
62164;BME280;48149;51.132;7.178;2023-09-18T01:04:29;97779.91;;;41.21;31.84
62164;BME280;48149;51.132;7.178;2023-09-18T01:06:54;97793.53;;;38.94;34.89
62164;BME280;48149;51.132;7.178;2023-09-18T01:09:21;97782.56;;;40.22;32.70
62164;BME280;48149;51.132;7.178;2023-09-18T01:17:14;97788.69;;;40.42;32.41
62164;BME280;48149;51.132;7.178;2023-09-18T01:19:44;97787.28;;;40.66;31.93
62164;BME280;48149;51.132;7.178;2023-09-18T01:22:11;97780.41;;;41.32;31.26
62164;BME280;48149;51.132;7.178;2023-09-18T01:24:37;97782.16;;;40.68;31.90
62164;BME280;48149;51.132;7.178;2023-09-18T01:27:03;97783.84;;;41.61;31.11
62164;BME280;48149;51.132;7.178;2023-09-18T01:29:31;97784.81;;;41.55;31.00
62164;BME280;48149;51.132;7.178;2023-09-18T01:31:56;97778.66;;;41.38;31.25
62164;BME280;48149;51.132;7.178;2023-09-18T01:34:25;97778.75;;;40.64;31.89
62164;BME280;48149;51.132;7.178;2023-09-18T01:36:51;97772.75;;;41.11;31.61
62164;BME280;48149;51.132;7.178;2023-09-18T01:39:16;97770.44;;;40.35;32.77
62164;BME280;48149;51.132;7.178;2023-09-18T01:41:42;97759.03;;;41.11;31.02
62164;BME280;48149;51.132;7.178;2023-09-18T01:44:07;97753.25;;;41.34;30.81
62164;BME280;48149;51.132;7.178;2023-09-18T01:46:33;97756.56;;;41.29;31.21
62164;BME280;48149;51.132;7.178;2023-09-18T01:49:01;97758.06;;;40.88;31.52
62164;BME280;48149;51.132;7.178;2023-09-18T01:51:26;97754.50;;;42.43;29.78
62164;BME280;48149;51.132;7.178;2023-09-18T01:53:51;97747.44;;;41.32;30.94
62164;BME280;48149;51.132;7.178;2023-09-18T01:56:16;97736.00;;;40.34;32.20
62164;BME280;48149;51.132;7.178;2023-09-18T01:58:42;97738.84;;;42.74;29.39
62164;BME280;48149;51.132;7.178;2023-09-18T02:01:07;97736.59;;;41.79;30.49
62164;BME280;48149;51.132;7.178;2023-09-18T02:03:32;97732.75;;;41.64;30.89
62164;BME280;48149;51.132;7.178;2023-09-18T02:05:57;97740.19;;;40.55;32.51
62164;BME280;48149;51.132;7.178;2023-09-18T02:08:23;97734.69;;;40.39;33.08
62164;BME280;48149;51.132;7.178;2023-09-18T02:10:48;97720.91;;;40.42;32.69
62164;BME280;48149;51.132;7.178;2023-09-18T02:13:13;97725.75;;;42.22;29.88
62164;BME280;48149;51.132;7.178;2023-09-18T02:15:39;97719.09;;;40.81;31.93
62164;BME280;48149;51.132;7.178;2023-09-18T02:18:04;97709.59;;;41.11;31.82
62164;BME280;48149;51.132;7.178;2023-09-18T02:20:29;97696.75;;;41.71;30.75
62164;BME280;48149;51.132;7.178;2023-09-18T02:22:54;97701.97;;;40.32;32.45
62164;BME280;48149;51.132;7.178;2023-09-18T02:25:19;97694.97;;;39.50;33.17
62164;BME280;48149;51.132;7.178;2023-09-18T02:27:45;97692.19;;;39.70;33.66
62164;BME280;48149;51.132;7.178;2023-09-18T02:30:10;97694.50;;;39.71;33.07
62164;BME280;48149;51.132;7.178;2023-09-18T02:32:36;97717.41;;;40.71;32.10
62164;BME280;48149;51.132;7.178;2023-09-18T02:35:01;97716.38;;;38.60;35.32
62164;BME280;48149;51.132;7.178;2023-09-18T02:37:27;97714.41;;;40.04;32.90
62164;BME280;48149;51.132;7.178;2023-09-18T02:39:54;97712.91;;;39.35;33.94
62164;BME280;48149;51.132;7.178;2023-09-18T02:42:19;97727.97;;;40.72;32.03
62164;BME280;48149;51.132;7.178;2023-09-18T02:44:44;97705.22;;;39.30;33.53
62164;BME280;48149;51.132;7.178;2023-09-18T02:47:09;97714.50;;;40.90;31.50
62164;BME280;48149;51.132;7.178;2023-09-18T02:49:34;97698.34;;;40.35;32.05
62164;BME280;48149;51.132;7.178;2023-09-18T02:52:00;97681.00;;;39.09;33.78
62164;BME280;48149;51.132;7.178;2023-09-18T02:54:25;97699.34;;;39.64;33.00
62164;BME280;48149;51.132;7.178;2023-09-18T02:56:50;97687.63;;;41.11;32.15
62164;BME280;48149;51.132;7.178;2023-09-18T02:59:15;97671.28;;;41.58;30.75
62164;BME280;48149;51.132;7.178;2023-09-18T03:01:41;97677.16;;;39.90;32.86
62164;BME280;48149;51.132;7.178;2023-09-18T03:04:06;97684.66;;;41.68;30.86
62164;BME280;48149;51.132;7.178;2023-09-18T03:06:32;97666.94;;;40.81;31.82
62164;BME280;48149;51.132;7.178;2023-09-18T03:08:57;97661.69;;;40.29;32.20
62164;BME280;48149;51.132;7.178;2023-09-18T03:11:22;97653.97;;;40.40;32.38
62164;BME280;48149;51.132;7.178;2023-09-18T03:13:52;97649.31;;;40.08;33.12
62164;BME280;48149;51.132;7.178;2023-09-18T03:16:17;97639.19;;;42.36;30.30
62164;BME280;48149;51.132;7.178;2023-09-18T03:18:42;97628.91;;;43.41;28.60
62164;BME280;48149;51.132;7.178;2023-09-18T03:21:08;97619.69;;;40.32;32.71
62164;BME280;48149;51.132;7.178;2023-09-18T03:23:33;97614.59;;;41.26;31.00
62164;BME280;48149;51.132;7.178;2023-09-18T03:25:58;97603.88;;;39.62;33.95
62164;BME280;48149;51.132;7.178;2023-09-18T03:28:24;97625.03;;;41.43;31.61
62164;BME280;48149;51.132;7.178;2023-09-18T03:30:49;97630.59;;;41.78;30.90
62164;BME280;48149;51.132;7.178;2023-09-18T03:33:15;97606.34;;;41.98;31.43
62164;BME280;48149;51.132;7.178;2023-09-18T03:35:50;97625.75;;;40.39;33.55
62164;BME280;48149;51.132;7.178;2023-09-18T03:38:15;97645.81;;;42.04;32.26
62164;BME280;48149;51.132;7.178;2023-09-18T03:40:40;97620.47;;;40.74;32.69
62164;BME280;48149;51.132;7.178;2023-09-18T03:43:06;97613.69;;;40.91;32.67
62164;BME280;48149;51.132;7.178;2023-09-18T03:45:32;97617.34;;;40.18;34.29
62164;BME280;48149;51.132;7.178;2023-09-18T03:47:57;97623.50;;;42.24;31.25
62164;BME280;48149;51.132;7.178;2023-09-18T03:50:22;97628.38;;;39.69;35.41
62164;BME280;48149;51.132;7.178;2023-09-18T03:52:48;97648.44;;;40.56;34.01
62164;BME280;48149;51.132;7.178;2023-09-18T03:55:13;97649.81;;;40.89;33.24
62164;BME280;48149;51.132;7.178;2023-09-18T03:57:38;97658.34;;;40.37;33.68
62164;BME280;48149;51.132;7.178;2023-09-18T04:00:04;97659.41;;;40.27;34.80
62164;BME280;48149;51.132;7.178;2023-09-18T04:02:30;97649.44;;;42.01;31.95
62164;BME280;48149;51.132;7.178;2023-09-18T04:04:55;97633.25;;;41.56;31.96
62164;BME280;48149;51.132;7.178;2023-09-18T04:07:20;97620.41;;;41.53;31.77
62164;BME280;48149;51.132;7.178;2023-09-18T04:09:45;97617.16;;;42.58;30.68
62164;BME280;48149;51.132;7.178;2023-09-18T04:12:11;97621.50;;;41.18;32.95
62164;BME280;48149;51.132;7.178;2023-09-18T04:14:36;97617.16;;;41.80;32.06
62164;BME280;48149;51.132;7.178;2023-09-18T04:17:01;97615.91;;;41.46;32.45
62164;BME280;48149;51.132;7.178;2023-09-18T04:19:27;97617.41;;;40.84;33.55
62164;BME280;48149;51.132;7.178;2023-09-18T04:21:52;97626.09;;;40.13;34.58
62164;BME280;48149;51.132;7.178;2023-09-18T04:24:17;97640.69;;;39.93;34.47
62164;BME280;48149;51.132;7.178;2023-09-18T04:26:43;97639.16;;;41.67;32.46
62164;BME280;48149;51.132;7.178;2023-09-18T04:29:08;97635.22;;;41.56;32.95
62164;BME280;48149;51.132;7.178;2023-09-18T04:31:33;97618.22;;;41.23;33.40
62164;BME280;48149;51.132;7.178;2023-09-18T04:33:58;97605.88;;;39.29;35.35
62164;BME280;48149;51.132;7.178;2023-09-18T04:36:24;97619.34;;;41.38;32.92
62164;BME280;48149;51.132;7.178;2023-09-18T04:38:50;97621.09;;;41.07;32.22
62164;BME280;48149;51.132;7.178;2023-09-18T04:41:15;97621.38;;;40.83;33.52
62164;BME280;48149;51.132;7.178;2023-09-18T04:43:41;97634.13;;;40.04;35.11
62164;BME280;48149;51.132;7.178;2023-09-18T04:46:07;97631.31;;;40.52;33.81
62164;BME280;48149;51.132;7.178;2023-09-18T04:48:32;97625.72;;;40.27;34.87
62164;BME280;48149;51.132;7.178;2023-09-18T04:50:58;97615.59;;;41.07;32.99
62164;BME280;48149;51.132;7.178;2023-09-18T04:53:24;97617.19;;;40.09;35.48
62164;BME280;48149;51.132;7.178;2023-09-18T04:55:49;97598.91;;;39.41;35.37
62164;BME280;48149;51.132;7.178;2023-09-18T04:58:15;97583.81;;;40.68;33.66
62164;BME280;48149;51.132;7.178;2023-09-18T05:00:40;97581.53;;;39.31;36.28
62164;BME280;48149;51.132;7.178;2023-09-18T05:03:06;97588.56;;;39.81;35.72
62164;BME280;48149;51.132;7.178;2023-09-18T05:05:33;97584.91;;;37.88;39.65
62164;BME280;48149;51.132;7.178;2023-09-18T05:07:58;97592.00;;;38.65;37.31
62164;BME280;48149;51.132;7.178;2023-09-18T05:10:23;97606.03;;;39.55;36.28
62164;BME280;48149;51.132;7.178;2023-09-18T05:12:49;97607.13;;;39.25;37.46
62164;BME280;48149;51.132;7.178;2023-09-18T05:15:15;97616.03;;;39.93;35.56
62164;BME280;48149;51.132;7.178;2023-09-18T05:17:45;97606.94;;;39.16;37.44
62164;BME280;48149;51.132;7.178;2023-09-18T05:20:17;97593.47;;;40.02;35.34
62164;BME280;48149;51.132;7.178;2023-09-18T05:22:43;97605.97;;;41.62;32.43
62164;BME280;48149;51.132;7.178;2023-09-18T05:25:09;97614.34;;;42.70;30.91
62164;BME280;48149;51.132;7.178;2023-09-18T05:27:35;97616.97;;;40.86;33.52
62164;BME280;48149;51.132;7.178;2023-09-18T05:30:00;97604.72;;;40.49;34.26
62164;BME280;48149;51.132;7.178;2023-09-18T05:32:26;97614.84;;;40.23;34.53
62164;BME280;48149;51.132;7.178;2023-09-18T05:34:51;97627.09;;;40.19;35.10
62164;BME280;48149;51.132;7.178;2023-09-18T05:37:16;97628.81;;;39.35;37.02
62164;BME280;48149;51.132;7.178;2023-09-18T05:39:42;97628.88;;;38.96;37.12
62164;BME280;48149;51.132;7.178;2023-09-18T05:42:07;97615.16;;;39.96;35.39
62164;BME280;48149;51.132;7.178;2023-09-18T05:44:32;97624.78;;;41.63;32.27
62164;BME280;48149;51.132;7.178;2023-09-18T05:47:00;97638.97;;;39.35;35.53
62164;BME280;48149;51.132;7.178;2023-09-18T05:49:28;97636.91;;;41.40;32.32
62164;BME280;48149;51.132;7.178;2023-09-18T05:51:55;97634.75;;;40.69;33.85
62164;BME280;48149;51.132;7.178;2023-09-18T05:54:20;97647.84;;;39.23;36.18
62164;BME280;48149;51.132;7.178;2023-09-18T05:56:46;97646.28;;;39.22;36.42
62164;BME280;48149;51.132;7.178;2023-09-18T05:59:11;97652.66;;;37.51;39.28
62164;BME280;48149;51.132;7.178;2023-09-18T06:01:36;97661.06;;;39.60;36.22
62164;BME280;48149;51.132;7.178;2023-09-18T06:04:02;97642.66;;;39.44;35.96
62164;BME280;48149;51.132;7.178;2023-09-18T06:06:28;97628.19;;;39.44;35.01
62164;BME280;48149;51.132;7.178;2023-09-18T06:08:53;97655.66;;;39.40;35.00
62164;BME280;48149;51.132;7.178;2023-09-18T06:11:19;97654.69;;;38.16;38.27
62164;BME280;48149;51.132;7.178;2023-09-18T06:13:44;97654.38;;;38.73;37.41
62164;BME280;48149;51.132;7.178;2023-09-18T06:16:09;97666.47;;;36.46;40.15
62164;BME280;48149;51.132;7.178;2023-09-18T06:18:35;97672.91;;;38.85;36.98
62164;BME280;48149;51.132;7.178;2023-09-18T06:21:03;97670.19;;;38.85;36.05
62164;BME280;48149;51.132;7.178;2023-09-18T06:23:28;97663.53;;;37.77;38.51
62164;BME280;48149;51.132;7.178;2023-09-18T06:25:53;97664.47;;;38.37;37.82
62164;BME280;48149;51.132;7.178;2023-09-18T06:28:21;97664.50;;;38.33;37.75
62164;BME280;48149;51.132;7.178;2023-09-18T06:30:46;97659.09;;;38.53;36.98
62164;BME280;48149;51.132;7.178;2023-09-18T06:33:11;97668.88;;;37.61;38.92
62164;BME280;48149;51.132;7.178;2023-09-18T06:35:37;97644.34;;;38.47;37.00
62164;BME280;48149;51.132;7.178;2023-09-18T06:38:03;97641.25;;;38.65;37.08
62164;BME280;48149;51.132;7.178;2023-09-18T06:40:30;97663.53;;;39.38;36.02
62164;BME280;48149;51.132;7.178;2023-09-18T06:42:58;97657.91;;;38.54;37.82
62164;BME280;48149;51.132;7.178;2023-09-18T06:45:25;97665.75;;;39.43;35.98
62164;BME280;48149;51.132;7.178;2023-09-18T06:47:50;97661.16;;;38.26;37.68
62164;BME280;48149;51.132;7.178;2023-09-18T06:50:15;97664.69;;;39.89;34.72
62164;BME280;48149;51.132;7.178;2023-09-18T06:52:40;97667.50;;;39.70;35.17
62164;BME280;48149;51.132;7.178;2023-09-18T06:55:06;97674.28;;;38.74;36.40
62164;BME280;48149;51.132;7.178;2023-09-18T06:57:31;97672.31;;;39.14;37.02
62164;BME280;48149;51.132;7.178;2023-09-18T06:59:56;97656.78;;;39.91;34.33
62164;BME280;48149;51.132;7.178;2023-09-18T07:02:21;97655.94;;;39.78;34.07
62164;BME280;48149;51.132;7.178;2023-09-18T07:04:47;97675.03;;;41.26;32.49
62164;BME280;48149;51.132;7.178;2023-09-18T07:07:12;97668.19;;;40.35;33.91
62164;BME280;48149;51.132;7.178;2023-09-18T07:09:38;97671.19;;;39.11;35.78
62164;BME280;48149;51.132;7.178;2023-09-18T07:12:03;97685.38;;;39.58;35.23
62164;BME280;48149;51.132;7.178;2023-09-18T07:14:28;97682.03;;;39.15;35.59
62164;BME280;48149;51.132;7.178;2023-09-18T07:16:53;97681.44;;;39.59;35.30
62164;BME280;48149;51.132;7.178;2023-09-18T07:19:19;97672.91;;;38.85;36.36
62164;BME280;48149;51.132;7.178;2023-09-18T07:21:44;97679.84;;;40.96;33.85
62164;BME280;48149;51.132;7.178;2023-09-18T07:24:09;97683.31;;;40.27;34.28
62164;BME280;48149;51.132;7.178;2023-09-18T07:26:35;97696.69;;;41.49;32.51
62164;BME280;48149;51.132;7.178;2023-09-18T07:29:00;97702.03;;;37.86;38.10
62164;BME280;48149;51.132;7.178;2023-09-18T07:31:26;97704.81;;;39.64;35.29
62164;BME280;48149;51.132;7.178;2023-09-18T07:33:51;97709.47;;;38.95;35.94
62164;BME280;48149;51.132;7.178;2023-09-18T07:36:18;97714.16;;;40.31;34.04
62164;BME280;48149;51.132;7.178;2023-09-18T07:38:43;97716.88;;;40.47;33.74
62164;BME280;48149;51.132;7.178;2023-09-18T07:41:08;97711.56;;;40.40;33.21
62164;BME280;48149;51.132;7.178;2023-09-18T07:43:34;97707.31;;;39.58;33.98
62164;BME280;48149;51.132;7.178;2023-09-18T07:45:59;97721.19;;;40.61;33.12
62164;BME280;48149;51.132;7.178;2023-09-18T07:48:26;97714.81;;;39.54;35.51
62164;BME280;48149;51.132;7.178;2023-09-18T07:50:51;97719.03;;;42.23;31.34
62164;BME280;48149;51.132;7.178;2023-09-18T07:53:17;97728.34;;;40.42;33.68
62164;BME280;48149;51.132;7.178;2023-09-18T07:55:42;97737.09;;;38.81;36.75
62164;BME280;48149;51.132;7.178;2023-09-18T07:58:07;97741.44;;;40.95;33.12
62164;BME280;48149;51.132;7.178;2023-09-18T08:00:34;97731.31;;;40.19;33.86
62164;BME280;48149;51.132;7.178;2023-09-18T08:02:59;97716.94;;;38.28;36.35
62164;BME280;48149;51.132;7.178;2023-09-18T08:05:26;97736.09;;;38.71;36.80
62164;BME280;48149;51.132;7.178;2023-09-18T08:07:53;97750.28;;;38.66;36.13
62164;BME280;48149;51.132;7.178;2023-09-18T08:10:20;97740.56;;;40.70;32.95
62164;BME280;48149;51.132;7.178;2023-09-18T08:12:46;97748.16;;;38.74;36.48
62164;BME280;48149;51.132;7.178;2023-09-18T08:15:11;97744.59;;;38.57;37.00
62164;BME280;48149;51.132;7.178;2023-09-18T08:17:37;97738.56;;;39.25;34.85
62164;BME280;48149;51.132;7.178;2023-09-18T08:20:02;97746.22;;;40.18;34.64
62164;BME280;48149;51.132;7.178;2023-09-18T08:22:32;97758.22;;;38.80;36.29
62164;BME280;48149;51.132;7.178;2023-09-18T08:24:57;97765.03;;;38.92;35.24
62164;BME280;48149;51.132;7.178;2023-09-18T08:27:23;97769.69;;;38.72;36.50
62164;BME280;48149;51.132;7.178;2023-09-18T08:29:49;97771.44;;;38.62;36.80
62164;BME280;48149;51.132;7.178;2023-09-18T08:32:14;97753.41;;;40.28;33.71
62164;BME280;48149;51.132;7.178;2023-09-18T08:34:39;97736.41;;;39.52;35.12
62164;BME280;48149;51.132;7.178;2023-09-18T08:37:04;97748.34;;;39.26;35.58
62164;BME280;48149;51.132;7.178;2023-09-18T08:39:30;97771.41;;;41.44;32.54
62164;BME280;48149;51.132;7.178;2023-09-18T08:42:02;97786.47;;;37.77;37.89
62164;BME280;48149;51.132;7.178;2023-09-18T08:44:28;97770.28;;;39.03;35.49
62164;BME280;48149;51.132;7.178;2023-09-18T08:46:54;97757.03;;;39.57;35.47
62164;BME280;48149;51.132;7.178;2023-09-18T08:49:21;97767.00;;;39.31;35.51
62164;BME280;48149;51.132;7.178;2023-09-18T08:51:47;97769.09;;;40.27;33.69
62164;BME280;48149;51.132;7.178;2023-09-18T08:54:13;97761.97;;;39.97;33.61
62164;BME280;48149;51.132;7.178;2023-09-18T08:56:39;97770.81;;;40.37;32.24
62164;BME280;48149;51.132;7.178;2023-09-18T08:59:04;97780.00;;;41.96;31.05
62164;BME280;48149;51.132;7.178;2023-09-18T09:01:30;97763.72;;;42.49;30.45
62164;BME280;48149;51.132;7.178;2023-09-18T09:03:56;97773.19;;;41.38;30.97
62164;BME280;48149;51.132;7.178;2023-09-18T09:06:21;97763.00;;;40.20;33.98
62164;BME280;48149;51.132;7.178;2023-09-18T09:08:47;97760.22;;;41.51;32.07
62164;BME280;48149;51.132;7.178;2023-09-18T09:11:12;97760.94;;;40.08;33.54
62164;BME280;48149;51.132;7.178;2023-09-18T09:13:38;97764.69;;;42.08;31.26
62164;BME280;48149;51.132;7.178;2023-09-18T09:16:04;97768.88;;;40.95;32.38
62164;BME280;48149;51.132;7.178;2023-09-18T09:18:29;97771.59;;;40.67;33.27
62164;BME280;48149;51.132;7.178;2023-09-18T09:21:00;97767.94;;;40.57;33.50
62164;BME280;48149;51.132;7.178;2023-09-18T09:23:26;97762.91;;;40.07;34.67
62164;BME280;48149;51.132;7.178;2023-09-18T09:25:52;97758.59;;;39.58;35.36
62164;BME280;48149;51.132;7.178;2023-09-18T09:28:28;97772.31;;;38.79;35.57
62164;BME280;48149;51.132;7.178;2023-09-18T09:30:55;97772.59;;;39.43;35.51
62164;BME280;48149;51.132;7.178;2023-09-18T09:33:26;97782.38;;;39.05;35.82
62164;BME280;48149;51.132;7.178;2023-09-18T09:35:51;97777.56;;;38.70;36.36
62164;BME280;48149;51.132;7.178;2023-09-18T09:38:16;97759.22;;;39.29;34.97
62164;BME280;48149;51.132;7.178;2023-09-18T09:40:43;97762.16;;;41.25;31.50
62164;BME280;48149;51.132;7.178;2023-09-18T09:43:12;97770.06;;;41.36;31.51
62164;BME280;48149;51.132;7.178;2023-09-18T09:45:38;97765.22;;;40.41;32.63
62164;BME280;48149;51.132;7.178;2023-09-18T09:48:05;97762.69;;;40.91;32.00
62164;BME280;48149;51.132;7.178;2023-09-18T09:50:31;97761.81;;;39.88;33.12
62164;BME280;48149;51.132;7.178;2023-09-18T09:52:57;97772.44;;;40.03;33.29
62164;BME280;48149;51.132;7.178;2023-09-18T09:55:30;97774.28;;;40.54;32.28
62164;BME280;48149;51.132;7.178;2023-09-18T09:57:59;97766.66;;;40.90;32.23
62164;BME280;48149;51.132;7.178;2023-09-18T10:00:46;97766.88;;;38.56;35.92
62164;BME280;48149;51.132;7.178;2023-09-18T10:03:14;97767.88;;;39.44;32.54
62164;BME280;48149;51.132;7.178;2023-09-18T10:05:40;97771.25;;;37.76;37.27
62164;BME280;48149;51.132;7.178;2023-09-18T10:08:07;97776.69;;;38.53;35.57
62164;BME280;48149;51.132;7.178;2023-09-18T10:10:35;97772.25;;;39.77;34.42
62164;BME280;48149;51.132;7.178;2023-09-18T10:13:02;97766.59;;;40.33;32.49
62164;BME280;48149;51.132;7.178;2023-09-18T10:15:29;97783.56;;;39.79;33.46
62164;BME280;48149;51.132;7.178;2023-09-18T10:17:58;97771.81;;;42.65;30.29
62164;BME280;48149;51.132;7.178;2023-09-18T10:20:25;97755.38;;;41.55;30.80
62164;BME280;48149;51.132;7.178;2023-09-18T10:22:56;97752.25;;;41.28;31.41
62164;BME280;48149;51.132;7.178;2023-09-18T10:25:23;97760.13;;;44.73;26.92
62164;BME280;48149;51.132;7.178;2023-09-18T10:27:49;97759.75;;;44.07;27.48
62164;BME280;48149;51.132;7.178;2023-09-18T10:30:17;97762.75;;;47.27;24.93
62164;BME280;48149;51.132;7.178;2023-09-18T10:32:44;97771.31;;;46.85;24.85
62164;BME280;48149;51.132;7.178;2023-09-18T10:35:10;97775.56;;;47.24;24.77
62164;BME280;48149;51.132;7.178;2023-09-18T10:37:37;97775.25;;;48.21;23.71
62164;BME280;48149;51.132;7.178;2023-09-18T10:40:03;97785.72;;;46.74;24.31
62164;BME280;48149;51.132;7.178;2023-09-18T10:42:29;97780.75;;;48.15;24.07
62164;BME280;48149;51.132;7.178;2023-09-18T10:44:56;97779.69;;;45.81;25.78
62164;BME280;48149;51.132;7.178;2023-09-18T10:47:21;97792.31;;;45.31;26.27
62164;BME280;48149;51.132;7.178;2023-09-18T10:49:46;97767.97;;;44.93;26.47
62164;BME280;48149;51.132;7.178;2023-09-18T10:52:15;97773.03;;;44.85;26.69
62164;BME280;48149;51.132;7.178;2023-09-18T10:54:40;97776.88;;;43.93;27.02
62164;BME280;48149;51.132;7.178;2023-09-18T10:57:05;97779.56;;;45.33;26.04
62164;BME280;48149;51.132;7.178;2023-09-18T10:59:31;97771.09;;;46.02;24.72
62164;BME280;48149;51.132;7.178;2023-09-18T11:01:56;97764.16;;;44.63;26.08
62164;BME280;48149;51.132;7.178;2023-09-18T11:04:22;97775.25;;;45.74;25.29
62164;BME280;48149;51.132;7.178;2023-09-18T11:09:20;97769.53;;;46.58;24.38
62164;BME280;48149;51.132;7.178;2023-09-18T11:11:45;97779.38;;;47.56;23.73
62164;BME280;48149;51.132;7.178;2023-09-18T11:14:13;97763.66;;;45.52;25.49
62164;BME280;48149;51.132;7.178;2023-09-18T11:16:40;97756.72;;;47.28;23.84
62164;BME280;48149;51.132;7.178;2023-09-18T11:19:10;97765.78;;;47.58;23.90
62164;BME280;48149;51.132;7.178;2023-09-18T11:21:36;97769.88;;;42.19;28.45
62164;BME280;48149;51.132;7.178;2023-09-18T11:24:05;97769.28;;;47.73;23.64
62164;BME280;48149;51.132;7.178;2023-09-18T11:26:34;97768.16;;;49.06;22.18
62164;BME280;48149;51.132;7.178;2023-09-18T11:29:06;97772.16;;;48.34;22.57
62164;BME280;48149;51.132;7.178;2023-09-18T11:31:44;97774.31;;;47.40;23.97
62164;BME280;48149;51.132;7.178;2023-09-18T11:34:15;97777.91;;;48.10;22.70
62164;BME280;48149;51.132;7.178;2023-09-18T11:36:44;97769.34;;;45.48;25.22
62164;BME280;48149;51.132;7.178;2023-09-18T11:39:09;97766.13;;;48.35;22.48
62164;BME280;48149;51.132;7.178;2023-09-18T11:41:36;97769.28;;;48.08;22.81
62164;BME280;48149;51.132;7.178;2023-09-18T11:46:47;97763.03;;;44.97;25.90
62164;BME280;48149;51.132;7.178;2023-09-18T11:49:13;97774.47;;;42.56;27.90
62164;BME280;48149;51.132;7.178;2023-09-18T11:51:39;97751.41;;;41.94;28.85
62164;BME280;48149;51.132;7.178;2023-09-18T11:54:05;97757.63;;;40.90;29.40
62164;BME280;48149;51.132;7.178;2023-09-18T11:56:32;97749.09;;;43.39;26.43
62164;BME280;48149;51.132;7.178;2023-09-18T11:58:57;97751.53;;;40.98;29.13
62164;BME280;48149;51.132;7.178;2023-09-18T12:01:24;97741.41;;;44.68;26.09
62164;BME280;48149;51.132;7.178;2023-09-18T12:03:53;97737.44;;;42.91;27.67
62164;BME280;48149;51.132;7.178;2023-09-18T12:06:18;97736.63;;;45.56;24.49
62164;BME280;48149;51.132;7.178;2023-09-18T12:08:43;97741.09;;;47.60;22.61
62164;BME280;48149;51.132;7.178;2023-09-18T12:11:09;97750.88;;;47.90;22.59
62164;BME280;48149;51.132;7.178;2023-09-18T12:13:34;97743.31;;;46.68;22.45
62164;BME280;48149;51.132;7.178;2023-09-18T12:16:01;97734.34;;;47.81;21.34
62164;BME280;48149;51.132;7.178;2023-09-18T12:18:29;97739.34;;;49.35;20.69
62164;BME280;48149;51.132;7.178;2023-09-18T12:20:54;97737.59;;;49.75;20.62
62164;BME280;48149;51.132;7.178;2023-09-18T12:23:21;97731.00;;;45.74;22.96
62164;BME280;48149;51.132;7.178;2023-09-18T12:25:47;97733.88;;;47.04;21.96
62164;BME280;48149;51.132;7.178;2023-09-18T12:28:13;97733.00;;;47.77;21.06
62164;BME280;48149;51.132;7.178;2023-09-18T12:30:40;97723.16;;;44.34;24.22
62164;BME280;48149;51.132;7.178;2023-09-18T12:33:05;97721.78;;;46.25;22.78
62164;BME280;48149;51.132;7.178;2023-09-18T12:35:30;97727.44;;;46.30;22.66
62164;BME280;48149;51.132;7.178;2023-09-18T12:37:58;97710.63;;;45.21;24.06
62164;BME280;48149;51.132;7.178;2023-09-18T12:40:28;97720.34;;;46.15;23.07
62164;BME280;48149;51.132;7.178;2023-09-18T12:42:54;97718.66;;;46.32;22.97
62164;BME280;48149;51.132;7.178;2023-09-18T12:45:20;97712.22;;;45.03;23.90
62164;BME280;48149;51.132;7.178;2023-09-18T12:47:46;97706.59;;;44.52;24.12
62164;BME280;48149;51.132;7.178;2023-09-18T12:50:14;97708.56;;;46.43;22.53
62164;BME280;48149;51.132;7.178;2023-09-18T12:52:40;97716.94;;;46.73;22.54
62164;BME280;48149;51.132;7.178;2023-09-18T12:55:06;97695.28;;;47.85;21.04
62164;BME280;48149;51.132;7.178;2023-09-18T12:57:32;97705.31;;;43.81;23.86
62164;BME280;48149;51.132;7.178;2023-09-18T12:59:57;97698.84;;;45.53;22.84
62164;BME280;48149;51.132;7.178;2023-09-18T13:02:23;97711.47;;;46.78;21.64
62164;BME280;48149;51.132;7.178;2023-09-18T13:04:52;97709.13;;;51.55;19.45